Time;durP1;ratioP1;P1;durP2;ratioP2;P2;SDS_P1;SDS_P2;PMS_P1;PMS_P2;Temp;Humidity;BMP_temperature;BMP_pressure;BME280_temperature;BME280_humidity;BME280_pressure;Samples;Min_cycle;Max_cycle;Signal;HPM_P1;HPM_P2
2023/09/12 00:01:06;;;;;;;8.20;7.50;;;22.40;99.90;;;;;;5042257;28;20234;-71
2023/09/12 00:03:35;;;;;;;7.20;6.70;;;22.40;99.90;;;;;;5039879;28;20195;-70
2023/09/12 00:06:04;;;;;;;7.38;6.78;;;22.40;99.90;;;;;;5037349;28;20206;-71
2023/09/12 00:08:31;;;;;;;7.20;6.60;;;22.40;99.90;;;;;;5043261;28;20199;-71
2023/09/12 00:11:03;;;;;;;7.70;7.00;;;22.40;99.90;;;;;;5038675;28;20632;-70
2023/09/12 00:13:31;;;;;;;7.10;6.60;;;22.50;99.90;;;;;;5038387;28;20261;-70
2023/09/12 00:15:59;;;;;;;7.85;7.25;;;22.50;99.90;;;;;;5038465;28;20309;-71
2023/09/12 00:18:26;;;;;;;7.97;7.30;;;22.50;99.90;;;;;;5042803;28;20203;-71
2023/09/12 00:20:54;;;;;;;7.50;6.90;;;22.50;99.90;;;;;;5024307;28;20214;-71
2023/09/12 00:23:23;;;;;;;7.18;6.57;;;22.50;99.90;;;;;;5037622;28;20219;-70
2023/09/12 00:25:51;;;;;;;8.40;7.70;;;22.50;99.90;;;;;;5022473;28;20771;-71
2023/09/12 00:28:18;;;;;;;8.25;7.65;;;22.40;99.90;;;;;;5039194;28;20198;-70
2023/09/12 00:30:45;;;;;;;7.85;7.07;;;22.40;99.90;;;;;;5035761;28;20268;-71
2023/09/12 00:33:12;;;;;;;8.52;7.82;;;22.30;99.90;;;;;;5040497;28;20321;-70
2023/09/12 00:35:39;;;;;;;7.32;6.68;;;22.30;99.90;;;;;;5038432;28;20641;-71
2023/09/12 00:38:06;;;;;;;7.55;6.95;;;22.30;99.90;;;;;;5043668;28;20238;-70
2023/09/12 00:40:35;;;;;;;7.65;7.05;;;22.20;99.90;;;;;;5041538;28;20202;-70
2023/09/12 00:43:02;;;;;;;7.50;6.90;;;22.20;99.90;;;;;;5038294;28;20226;-70
2023/09/12 00:45:29;;;;;;;6.78;6.28;;;22.10;99.90;;;;;;5039591;28;20826;-70
2023/09/12 00:47:58;;;;;;;7.93;7.18;;;22.20;99.90;;;;;;5042474;28;20273;-71
2023/09/12 00:50:27;;;;;;;8.05;7.35;;;22.10;99.90;;;;;;5041615;28;20199;-70
2023/09/12 00:52:55;;;;;;;8.20;7.40;;;22.10;99.90;;;;;;5040624;28;20231;-70
2023/09/12 00:55:23;;;;;;;7.75;7.15;;;22.00;99.90;;;;;;5041508;28;20756;-70
2023/09/12 00:57:52;;;;;;;7.10;6.60;;;22.00;99.90;;;;;;5039780;28;20227;-70
2023/09/12 01:00:19;;;;;;;7.50;6.90;;;22.00;99.90;;;;;;5042860;28;21283;-70
2023/09/12 01:02:49;;;;;;;7.53;7.00;;;21.90;99.90;;;;;;5040954;28;20208;-71
2023/09/12 01:05:17;;;;;;;7.18;6.68;;;21.90;99.90;;;;;;5041130;28;20222;-71
2023/09/12 01:07:45;;;;;;;7.97;7.35;;;21.90;99.90;;;;;;5040345;28;20311;-70
2023/09/12 01:10:12;;;;;;;8.10;7.30;;;21.90;99.90;;;;;;5026940;28;20665;-71
2023/09/12 01:12:39;;;;;;;8.18;7.43;;;21.90;99.90;;;;;;5020786;28;20195;-71
2023/09/12 01:15:13;;;;;;;7.68;7.07;;;21.90;99.90;;;;;;5025254;28;20246;-71
2023/09/12 01:17:41;;;;;;;7.22;6.63;;;21.90;99.90;;;;;;5038451;28;20215;-71
2023/09/12 01:20:12;;;;;;;7.65;7.05;;;21.90;99.90;;;;;;5021618;28;20208;-71
2023/09/12 01:22:56;;;;;;;6.85;6.35;;;21.90;99.90;;;;;;5024214;28;20672;-70
2023/09/12 01:25:43;;;;;;;7.20;6.60;;;21.80;99.90;;;;;;5039182;28;20223;-71
2023/09/12 01:28:15;;;;;;;7.57;6.88;;;21.80;99.90;;;;;;5040753;28;20699;-71
2023/09/12 01:30:45;;;;;;;8.48;7.78;;;21.80;99.90;;;;;;5039447;28;20203;-71
2023/09/12 01:33:13;;;;;;;7.95;7.15;;;21.80;99.90;;;;;;5040919;28;20210;-70
2023/09/12 01:35:40;;;;;;;8.10;7.40;;;21.70;99.90;;;;;;5025111;28;20781;-71
2023/09/12 01:38:07;;;;;;;7.72;7.13;;;21.70;99.90;;;;;;5035725;28;20276;-71
2023/09/12 01:40:37;;;;;;;7.60;6.82;;;21.60;99.90;;;;;;5036584;28;20243;-71
2023/09/12 01:43:06;;;;;;;8.23;7.53;;;21.60;99.90;;;;;;5037091;28;20223;-71
2023/09/12 01:45:35;;;;;;;7.38;6.78;;;21.60;99.90;;;;;;5038733;28;20218;-71
2023/09/12 01:48:03;;;;;;;7.43;6.75;;;21.60;99.90;;;;;;5038570;28;20759;-71
2023/09/12 01:50:32;;;;;;;8.48;7.72;;;21.60;99.90;;;;;;5036111;28;20679;-71
2023/09/12 01:52:59;;;;;;;7.70;7.00;;;21.60;99.90;;;;;;5039030;28;20606;-71
2023/09/12 01:55:27;;;;;;;7.65;7.05;;;21.60;99.90;;;;;;5035737;28;20251;-70
2023/09/12 01:57:55;;;;;;;7.60;7.00;;;21.60;99.90;;;;;;5006229;28;20221;-71
2023/09/12 02:00:22;;;;;;;8.05;7.45;;;21.50;99.90;;;;;;5039213;28;20210;-71
2023/09/12 02:02:51;;;;;;;7.18;6.57;;;21.50;99.90;;;;;;5021902;28;20223;-71
2023/09/12 02:05:21;;;;;;;8.15;7.45;;;21.50;99.90;;;;;;5022110;28;20250;-71
2023/09/12 02:07:48;;;;;;;7.97;7.38;;;21.50;99.90;;;;;;5038577;28;20238;-70
2023/09/12 02:10:16;;;;;;;8.32;7.63;;;21.50;99.90;;;;;;5037845;28;20312;-71
2023/09/12 02:12:43;;;;;;;8.27;7.57;;;21.50;99.90;;;;;;5038512;28;20234;-71
2023/09/12 02:15:12;;;;;;;7.85;7.13;;;21.50;99.90;;;;;;5038154;28;20269;-70
2023/09/12 02:17:39;;;;;;;8.52;7.82;;;21.50;99.90;;;;;;5036221;28;20218;-71
2023/09/12 02:20:11;;;;;;;8.30;7.70;;;21.50;99.90;;;;;;5039423;28;20879;-71
2023/09/12 02:22:38;;;;;;;7.80;7.20;;;21.40;99.90;;;;;;5035674;28;20250;-70
2023/09/12 02:25:06;;;;;;;7.70;7.03;;;21.40;99.90;;;;;;5035824;28;20308;-70
2023/09/12 02:27:33;;;;;;;8.75;7.95;;;21.40;99.90;;;;;;5037366;28;20281;-70
2023/09/12 02:30:00;;;;;;;7.78;7.18;;;21.30;99.90;;;;;;5040560;28;20672;-70
2023/09/12 02:32:27;;;;;;;8.70;8.00;;;21.30;99.90;;;;;;5042665;28;20226;-70
2023/09/12 02:34:56;;;;;;;9.18;8.32;;;21.40;99.90;;;;;;5041764;28;20262;-70
2023/09/12 02:37:25;;;;;;;8.23;7.53;;;21.30;99.90;;;;;;5028117;28;20199;-70
2023/09/12 02:39:52;;;;;;;8.48;7.75;;;21.30;99.90;;;;;;5041204;28;20249;-70
2023/09/12 02:42:19;;;;;;;8.25;7.55;;;21.30;99.90;;;;;;5044385;28;20724;-70
2023/09/12 02:44:47;;;;;;;8.38;7.57;;;21.30;99.90;;;;;;5039233;28;20421;-70
2023/09/12 02:47:14;;;;;;;8.35;7.65;;;21.20;99.90;;;;;;5042001;28;20202;-70
2023/09/12 02:49:41;;;;;;;9.00;8.20;;;21.20;99.90;;;;;;5045754;28;20198;-70
2023/09/12 02:52:08;;;;;;;8.50;7.80;;;21.10;99.90;;;;;;5040799;28;20701;-70
2023/09/12 02:54:36;;;;;;;8.38;7.78;;;21.10;99.90;;;;;;5042278;28;20242;-70
2023/09/12 02:57:04;;;;;;;7.82;7.22;;;21.00;99.90;;;;;;5042417;28;20797;-70
2023/09/12 02:59:31;;;;;;;8.27;7.60;;;21.00;99.90;;;;;;5041043;28;20209;-70
2023/09/12 03:01:58;;;;;;;8.77;8.07;;;21.00;99.90;;;;;;5039446;28;20622;-70
2023/09/12 03:04:27;;;;;;;9.30;8.40;;;21.00;99.90;;;;;;5040399;28;20296;-70
2023/09/12 03:06:54;;;;;;;9.00;8.30;;;21.00;99.90;;;;;;5042302;28;20206;-70
2023/09/12 03:09:22;;;;;;;8.38;7.68;;;21.10;99.90;;;;;;5039217;28;20272;-70
2023/09/12 03:11:51;;;;;;;9.32;8.40;;;21.10;99.90;;;;;;5044456;28;20226;-69
2023/09/12 03:14:18;;;;;;;8.65;7.95;;;21.20;99.90;;;;;;5041564;28;20265;-70
2023/09/12 03:16:45;;;;;;;8.63;7.82;;;21.20;99.90;;;;;;5039012;28;20239;-70
2023/09/12 03:19:11;;;;;;;8.65;7.88;;;21.10;99.90;;;;;;5043665;28;20230;-71
2023/09/12 03:21:39;;;;;;;7.97;7.38;;;21.00;99.90;;;;;;5040321;28;20230;-70
2023/09/12 03:24:07;;;;;;;8.65;7.95;;;20.90;99.90;;;;;;5039997;28;20218;-71
2023/09/12 03:26:35;;;;;;;8.00;7.32;;;20.80;99.90;;;;;;5042873;28;20630;-70
2023/09/12 03:29:05;;;;;;;8.20;7.50;;;20.70;99.90;;;;;;5037834;28;20239;-71
2023/09/12 03:31:32;;;;;;;7.80;7.20;;;20.70;99.90;;;;;;5037515;28;20230;-71
2023/09/12 03:33:59;;;;;;;8.48;7.78;;;20.70;99.90;;;;;;5040541;28;20223;-70
2023/09/12 03:36:26;;;;;;;7.45;6.75;;;20.70;99.90;;;;;;5037552;28;20342;-70
2023/09/12 03:38:53;;;;;;;8.20;7.50;;;20.70;99.90;;;;;;5036876;28;20231;-70
2023/09/12 03:41:22;;;;;;;7.78;7.18;;;20.70;99.90;;;;;;5040296;28;20293;-70
2023/09/12 03:43:49;;;;;;;8.32;7.63;;;20.70;99.90;;;;;;5038276;28;20202;-70
2023/09/12 03:46:17;;;;;;;8.00;7.40;;;20.60;99.90;;;;;;5040536;28;21139;-70
2023/09/12 03:48:44;;;;;;;7.63;7.03;;;20.60;99.90;;;;;;5039397;28;20223;-70
2023/09/12 03:51:11;;;;;;;8.05;7.28;;;20.60;99.90;;;;;;5039816;28;20869;-70
2023/09/12 03:53:38;;;;;;;7.72;7.13;;;20.60;99.90;;;;;;5040747;28;20820;-70
2023/09/12 03:56:05;;;;;;;7.68;7.07;;;20.60;99.90;;;;;;5025046;28;20222;-70
2023/09/12 03:58:32;;;;;;;8.18;7.38;;;20.60;99.90;;;;;;5042544;28;20211;-70
2023/09/12 04:00:59;;;;;;;7.45;6.85;;;20.50;99.90;;;;;;5036841;28;20295;-70
2023/09/12 04:03:28;;;;;;;8.10;7.32;;;20.50;99.90;;;;;;5040934;28;20211;-70
2023/09/12 04:05:55;;;;;;;7.85;7.20;;;20.50;99.90;;;;;;5039298;28;20308;-70
2023/09/12 04:08:22;;;;;;;7.72;7.10;;;20.40;99.90;;;;;;5007220;28;20199;-70
2023/09/12 04:10:49;;;;;;;8.00;7.18;;;20.40;99.90;;;;;;5040610;28;20624;-70
2023/09/12 04:13:16;;;;;;;7.85;7.25;;;20.40;99.90;;;;;;5039179;28;20203;-70
2023/09/12 04:15:43;;;;;;;8.18;7.53;;;20.40;99.90;;;;;;5027878;28;20223;-70
2023/09/12 04:18:10;;;;;;;8.35;7.75;;;20.40;99.90;;;;;;5038152;28;20212;-70
2023/09/12 04:20:38;;;;;;;8.40;7.70;;;20.40;99.90;;;;;;5042315;28;20245;-70
2023/09/12 04:23:05;;;;;;;7.90;7.30;;;20.30;99.90;;;;;;5042587;28;20253;-70
2023/09/12 04:25:33;;;;;;;7.88;7.28;;;20.30;99.90;;;;;;5036240;28;20296;-70
2023/09/12 04:28:00;;;;;;;8.32;7.63;;;20.30;99.90;;;;;;5040284;28;20216;-70
2023/09/12 04:30:27;;;;;;;9.00;8.18;;;20.30;99.90;;;;;;5038365;28;20735;-70
2023/09/12 04:32:54;;;;;;;8.43;7.70;;;20.30;99.90;;;;;;5037320;28;21583;-71
2023/09/12 04:35:22;;;;;;;8.45;7.75;;;20.30;99.90;;;;;;5038807;28;20246;-71
2023/09/12 04:37:50;;;;;;;8.30;7.68;;;20.40;99.90;;;;;;5024437;28;20616;-70
2023/09/12 04:40:19;;;;;;;9.10;8.38;;;20.40;99.90;;;;;;5042684;28;20207;-70
2023/09/12 04:42:46;;;;;;;9.70;8.80;;;20.40;99.90;;;;;;5037039;28;20227;-70
2023/09/12 04:45:13;;;;;;;8.70;7.90;;;20.40;99.90;;;;;;5021335;28;20250;-71
2023/09/12 04:47:40;;;;;;;9.63;8.82;;;20.40;99.90;;;;;;5036241;28;20685;-71
2023/09/12 04:50:07;;;;;;;9.10;8.27;;;20.40;99.90;;;;;;5038513;28;20406;-71
2023/09/12 04:52:34;;;;;;;9.15;8.35;;;20.40;99.90;;;;;;5038776;28;20199;-71
2023/09/12 04:55:03;;;;;;;9.30;8.50;;;20.40;99.90;;;;;;5038402;28;20254;-71
2023/09/12 04:57:30;;;;;;;9.32;8.63;;;20.30;99.90;;;;;;5039345;28;20203;-71
2023/09/12 04:59:58;;;;;;;8.73;7.88;;;20.30;99.90;;;;;;5039059;28;20211;-70
2023/09/12 05:02:25;;;;;;;7.90;7.30;;;20.30;99.90;;;;;;5038363;28;20205;-70
2023/09/12 05:04:53;;;;;;;8.73;8.00;;;20.30;99.90;;;;;;5041318;28;20389;-70
2023/09/12 05:07:20;;;;;;;8.07;7.47;;;20.30;99.90;;;;;;5039131;28;20292;-71
2023/09/12 05:09:48;;;;;;;8.45;7.75;;;20.30;99.90;;;;;;5035668;28;20234;-71
2023/09/12 05:12:17;;;;;;;8.45;7.72;;;20.30;99.90;;;;;;5041038;28;20195;-70
2023/09/12 05:14:44;;;;;;;9.52;8.63;;;20.30;99.90;;;;;;5039071;28;20248;-71
2023/09/12 05:17:11;;;;;;;9.73;8.93;;;20.30;99.90;;;;;;5036873;28;20260;-70
2023/09/12 05:19:37;;;;;;;9.88;8.98;;;20.40;99.90;;;;;;5035668;28;20249;-70
2023/09/12 05:22:05;;;;;;;9.00;8.10;;;20.60;99.90;;;;;;5039561;28;20231;-70
2023/09/12 05:24:32;;;;;;;9.43;8.57;;;20.60;99.90;;;;;;5036777;28;20242;-70
2023/09/12 05:26:59;;;;;;;8.85;8.10;;;20.70;99.90;;;;;;5038508;28;20689;-70
2023/09/12 05:29:27;;;;;;;7.95;7.35;;;20.90;99.90;;;;;;5035836;28;20253;-71
2023/09/12 05:31:54;;;;;;;8.20;7.50;;;21.00;99.90;;;;;;5035974;28;20297;-70
2023/09/12 05:34:21;;;;;;;8.55;7.75;;;21.20;99.90;;;;;;5037474;28;20281;-71
2023/09/12 05:36:48;;;;;;;8.27;7.57;;;21.20;99.90;;;;;;5036262;28;20212;-70
2023/09/12 05:39:15;;;;;;;8.90;8.00;;;21.30;99.90;;;;;;5036428;28;20297;-71
2023/09/12 05:41:42;;;;;;;8.52;7.55;;;21.40;99.90;;;;;;5038786;28;20222;-71
2023/09/12 05:44:09;;;;;;;8.55;7.75;;;21.50;99.90;;;;;;5036390;28;20258;-70
2023/09/12 05:46:38;;;;;;;9.60;7.78;;;21.70;99.90;;;;;;5018156;28;20210;-71
2023/09/12 05:49:05;;;;;;;8.45;7.57;;;21.90;99.90;;;;;;5037613;28;20247;-71
2023/09/12 05:51:32;;;;;;;8.27;7.55;;;22.00;99.90;;;;;;5036162;28;20679;-71
2023/09/12 05:54:00;;;;;;;7.60;6.93;;;22.10;99.90;;;;;;5037506;28;20819;-70
2023/09/12 05:56:28;;;;;;;7.78;7.07;;;22.10;99.90;;;;;;5036609;28;20219;-71
2023/09/12 05:58:55;;;;;;;7.88;7.18;;;22.10;99.90;;;;;;5040656;28;20210;-71
2023/09/12 06:01:22;;;;;;;7.72;7.07;;;22.20;99.90;;;;;;5020392;28;20286;-71
2023/09/12 06:03:50;;;;;;;7.65;7.05;;;22.30;99.90;;;;;;5041851;28;20304;-70
2023/09/12 06:06:17;;;;;;;8.40;7.75;;;22.40;99.90;;;;;;5040330;28;20204;-71
2023/09/12 06:08:44;;;;;;;9.52;8.63;;;22.20;99.90;;;;;;5039324;28;20234;-70
2023/09/12 06:11:11;;;;;;;9.80;8.85;;;22.20;99.90;;;;;;5038903;28;20227;-70
2023/09/12 06:13:38;;;;;;;9.38;8.48;;;22.20;99.90;;;;;;5044548;28;20231;-70
2023/09/12 06:16:05;;;;;;;11.25;9.13;;;22.20;99.90;;;;;;5044272;28;20246;-71
2023/09/12 06:18:32;;;;;;;8.80;7.88;;;22.50;99.90;;;;;;5040273;28;20211;-70
2023/09/12 06:21:04;;;;;;;9.02;8.15;;;22.90;99.90;;;;;;5038668;28;20288;-70
2023/09/12 06:23:31;;;;;;;9.18;8.35;;;23.00;99.90;;;;;;5041363;28;20582;-70
2023/09/12 06:25:58;;;;;;;9.60;8.80;;;23.20;99.90;;;;;;5038273;28;20227;-70
2023/09/12 06:28:30;;;;;;;9.30;8.52;;;23.20;99.90;;;;;;5041803;28;20211;-70
2023/09/12 06:30:58;;;;;;;9.23;8.52;;;23.30;99.90;;;;;;5042230;28;20304;-69
2023/09/12 06:33:25;;;;;;;9.70;8.80;;;23.40;99.90;;;;;;5042381;28;20199;-69
2023/09/12 06:35:53;;;;;;;10.93;9.93;;;23.30;99.90;;;;;;5041725;28;20276;-70
2023/09/12 06:38:22;;;;;;;10.07;9.18;;;23.20;99.90;;;;;;5040246;28;20231;-70
2023/09/12 06:40:49;;;;;;;9.48;8.68;;;23.20;99.90;;;;;;5043403;28;20284;-70
2023/09/12 06:43:16;;;;;;;8.55;7.80;;;23.40;99.90;;;;;;5034143;28;20223;-70
2023/09/12 06:45:44;;;;;;;9.85;8.82;;;23.60;99.90;;;;;;5039856;28;20303;-70
2023/09/12 06:48:11;;;;;;;9.82;8.93;;;23.60;99.90;;;;;;5045326;28;20209;-70
2023/09/12 06:50:38;;;;;;;9.95;9.05;;;23.70;99.90;;;;;;5042483;28;20615;-70
2023/09/12 06:53:06;;;;;;;9.93;9.00;;;23.70;99.90;;;;;;5037781;28;20198;-71
2023/09/12 06:55:35;;;;;;;9.40;8.60;;;23.70;99.90;;;;;;5024511;28;20229;-71
2023/09/12 06:58:03;;;;;;;9.80;8.90;;;23.80;99.90;;;;;;5040532;28;20252;-71
2023/09/12 07:00:31;;;;;;;10.43;9.43;;;24.10;99.90;;;;;;5035239;28;20202;-71
2023/09/12 07:02:59;;;;;;;9.80;8.57;;;24.20;99.90;;;;;;5039033;28;20209;-70
2023/09/12 07:05:26;;;;;;;9.77;8.48;;;24.10;99.90;;;;;;5037024;28;20288;-70
2023/09/12 07:07:54;;;;;;;9.57;8.68;;;24.00;99.90;;;;;;5033781;28;20202;-74
2023/09/12 07:10:21;;;;;;;9.63;8.73;;;23.90;99.90;;;;;;5038619;28;20614;-74
2023/09/12 07:12:49;;;;;;;9.57;8.68;;;23.90;99.90;;;;;;5020247;28;20258;-74
2023/09/12 07:15:17;;;;;;;9.73;8.93;;;24.10;99.90;;;;;;5038381;28;20769;-73
2023/09/12 07:17:44;;;;;;;10.27;9.23;;;24.10;99.90;;;;;;5022470;28;20238;-73
2023/09/12 07:20:12;;;;;;;8.95;8.15;;;24.20;99.90;;;;;;5039747;28;20234;-72
2023/09/12 07:22:40;;;;;;;9.50;8.65;;;24.20;99.90;;;;;;5037382;28;20207;-72
2023/09/12 07:25:11;;;;;;;9.43;8.57;;;24.10;99.90;;;;;;5041173;28;20226;-74
2023/09/12 07:27:38;;;;;;;10.02;8.55;;;24.10;99.90;;;;;;5039047;28;20207;-74
2023/09/12 07:30:08;;;;;;;8.60;7.80;;;24.20;99.90;;;;;;5032967;28;20292;-71
2023/09/12 07:32:35;;;;;;;10.23;8.93;;;24.40;99.90;;;;;;5037150;28;20792;-71
2023/09/12 07:35:03;;;;;;;8.80;8.00;;;24.40;99.90;;;;;;5036541;28;20246;-71
2023/09/12 07:37:30;;;;;;;9.90;8.13;;;24.30;99.90;;;;;;5033922;28;20294;-71
2023/09/12 07:39:57;;;;;;;7.93;7.22;;;24.40;99.90;;;;;;5042853;28;20230;-71
2023/09/12 07:42:24;;;;;;;8.00;7.30;;;24.50;99.90;;;;;;5021968;28;20199;-71
2023/09/12 07:44:51;;;;;;;10.60;9.20;;;24.50;99.90;;;;;;5020644;28;20258;-71
2023/09/12 07:47:20;;;;;;;11.00;10.00;;;24.40;99.90;;;;;;5036746;28;20231;-70
2023/09/12 07:49:53;;;;;;;12.93;9.38;;;24.20;99.90;;;;;;5036606;28;20226;-71
2023/09/12 07:52:20;;;;;;;9.60;8.65;;;24.00;99.90;;;;;;5022951;28;20496;-71
2023/09/12 07:54:47;;;;;;;9.52;8.52;;;23.80;99.90;;;;;;5019631;28;20281;-71
2023/09/12 07:57:14;;;;;;;15.13;9.25;;;23.70;99.90;;;;;;5038914;28;20273;-71
2023/09/12 07:59:41;;;;;;;9.13;8.32;;;23.60;99.90;;;;;;5032373;28;20295;-71
2023/09/12 08:02:08;;;;;;;9.43;8.48;;;23.70;99.90;;;;;;5039459;28;20199;-72
2023/09/12 08:04:37;;;;;;;8.98;8.18;;;23.80;99.90;;;;;;5021575;28;20225;-71
2023/09/12 08:07:04;;;;;;;9.73;8.50;;;24.00;99.90;;;;;;5019399;28;20200;-71
2023/09/12 08:09:50;;;;;;;8.40;7.70;;;24.00;99.90;;;;;;5037604;28;20707;-71
2023/09/12 08:12:17;;;;;;;8.70;7.85;;;24.00;99.90;;;;;;5037139;28;20289;-71
2023/09/12 08:14:45;;;;;;;9.40;8.50;;;24.00;99.90;;;;;;5030501;28;20768;-71
2023/09/12 08:17:12;;;;;;;9.48;8.57;;;24.00;99.90;;;;;;5034844;28;20211;-71
2023/09/12 08:19:41;;;;;;;8.15;7.35;;;24.10;99.90;;;;;;5032693;28;20223;-71
2023/09/12 08:22:10;;;;;;;9.10;8.20;;;24.20;99.90;;;;;;5035222;28;20199;-70
2023/09/12 08:24:37;;;;;;;9.02;8.13;;;24.40;99.90;;;;;;5030342;28;20270;-71
2023/09/12 08:27:05;;;;;;;10.55;9.48;;;24.60;99.90;;;;;;5033778;28;20293;-71
2023/09/12 08:29:33;;;;;;;9.18;8.35;;;25.00;99.90;;;;;;5033811;28;20199;-71
2023/09/12 08:32:00;;;;;;;10.23;9.23;;;25.30;99.90;;;;;;5016480;28;20210;-70
2023/09/12 08:34:27;;;;;;;9.52;8.35;;;25.70;99.90;;;;;;5014783;28;20250;-71
2023/09/12 08:36:55;;;;;;;9.75;8.68;;;26.00;99.90;;;;;;5032185;28;20261;-70
2023/09/12 08:39:25;;;;;;;9.52;8.50;;;26.20;99.90;;;;;;5042099;28;20231;-71
2023/09/12 08:41:53;;;;;;;10.65;8.70;;;26.50;99.90;;;;;;5033624;28;20248;-71
2023/09/12 08:44:21;;;;;;;9.10;8.27;;;26.70;99.90;;;;;;5031511;28;20246;-71
2023/09/12 08:46:57;;;;;;;9.25;8.35;;;26.80;99.90;;;;;;5094403;27;20577;-70
2023/09/12 08:49:24;;;;;;;9.68;8.63;;;27.00;99.90;;;;;;5080004;28;20190;-70
2023/09/12 08:51:51;;;;;;;8.68;7.78;;;27.20;99.90;;;;;;5086305;28;20947;-69
2023/09/12 08:54:18;;;;;;;9.25;8.40;;;27.40;99.90;;;;;;5078623;28;20260;-70
2023/09/12 08:56:46;;;;;;;9.20;8.30;;;27.60;99.90;;;;;;5072131;28;20271;-70
2023/09/12 08:59:13;;;;;;;9.30;8.32;;;27.70;99.90;;;;;;5071039;28;20198;-70
2023/09/12 09:01:41;;;;;;;8.68;7.82;;;28.00;99.90;;;;;;5073023;28;20867;-70
2023/09/12 09:04:10;;;;;;;10.40;8.20;;;28.20;99.90;;;;;;5070108;28;20236;-70
2023/09/12 09:06:39;;;;;;;9.57;8.38;;;28.30;99.90;;;;;;5068546;28;20276;-70
2023/09/12 09:09:07;;;;;;;8.32;7.53;;;28.00;99.90;;;;;;5074470;28;20204;-70
2023/09/12 09:11:35;;;;;;;9.85;8.85;;;27.70;99.90;;;;;;5071537;28;20202;-70
2023/09/12 09:14:04;;;;;;;10.45;8.68;;;27.60;99.90;;;;;;5072803;28;20217;-70
2023/09/12 09:16:31;;;;;;;9.73;8.73;;;27.90;99.90;;;;;;5068609;28;20189;-70
2023/09/12 09:19:01;;;;;;;11.35;8.60;;;28.10;99.90;;;;;;5059308;28;20809;-70
2023/09/12 09:21:31;;;;;;;8.50;7.60;;;28.50;99.90;;;;;;5075863;28;20194;-70
2023/09/12 09:23:59;;;;;;;11.88;7.93;;;28.40;99.90;;;;;;5073214;28;20306;-70
2023/09/12 09:26:27;;;;;;;8.65;7.85;;;27.90;99.90;;;;;;5065171;28;20245;-70
2023/09/12 09:29:05;;;;;;;10.40;7.43;;;28.00;99.90;;;;;;5067823;28;20313;-70
2023/09/12 09:31:34;;;;;;;8.75;8.05;;;28.30;99.90;;;;;;5059110;28;20719;-71
2023/09/12 09:34:03;;;;;;;7.95;7.22;;;28.40;99.90;;;;;;5063858;28;20320;-71
2023/09/12 09:36:33;;;;;;;7.68;6.97;;;28.10;99.90;;;;;;5067822;28;20194;-70
2023/09/12 09:39:00;;;;;;;8.20;7.40;;;27.70;99.90;;;;;;5065731;28;20203;-70
2023/09/12 09:41:28;;;;;;;8.88;8.02;;;27.40;99.90;;;;;;5064719;28;20550;-70
2023/09/12 09:43:55;;;;;;;8.25;7.38;;;27.10;99.90;;;;;;5066997;28;20295;-70
2023/09/12 09:46:22;;;;;;;8.90;8.07;;;27.00;99.90;;;;;;5070259;28;20210;-70
2023/09/12 09:48:52;;;;;;;8.70;7.68;;;27.20;99.90;;;;;;5065584;28;20233;-70
2023/09/12 09:51:20;;;;;;;9.07;8.18;;;27.60;99.90;;;;;;5066310;28;20270;-70
2023/09/12 09:53:52;;;;;;;9.55;8.02;;;28.00;99.90;;;;;;5062946;28;20234;-70
2023/09/12 09:56:20;;;;;;;9.10;8.20;;;28.40;99.90;;;;;;5065214;28;20218;-70
2023/09/12 09:58:51;;;;;;;8.93;8.07;;;28.60;99.90;;;;;;5051714;28;20199;-70
2023/09/12 10:01:20;;;;;;;9.38;8.43;;;28.50;99.90;;;;;;5054374;28;20291;-71
2023/09/12 10:03:48;;;;;;;10.43;7.38;;;28.80;99.90;;;;;;5055018;28;20224;-71
2023/09/12 10:06:17;;;;;;;9.40;8.38;;;29.10;99.90;;;;;;5052883;28;20207;-71
2023/09/12 10:08:46;;;;;;;9.40;8.10;;;29.30;99.90;;;;;;5050381;28;20225;-70
2023/09/12 10:11:16;;;;;;;9.23;8.27;;;29.40;99.90;;;;;;5053318;28;20208;-70
2023/09/12 10:13:50;;;;;;;9.68;8.57;;;29.40;99.90;;;;;;5058950;28;20198;-71
2023/09/12 10:16:18;;;;;;;9.73;8.80;;;29.20;99.90;;;;;;5053813;28;20240;-71
2023/09/12 10:18:51;;;;;;;11.52;8.55;;;28.90;99.90;;;;;;5055253;28;20202;-71
2023/09/12 10:21:24;;;;;;;8.40;7.60;;;28.90;99.90;;;;;;5051741;28;20283;-70
2023/09/12 10:23:51;;;;;;;10.10;8.63;;;28.80;99.90;;;;;;5058863;28;20252;-70
2023/09/12 10:26:21;;;;;;;9.80;8.82;;;28.70;99.90;;;;;;5053922;28;20216;-71
2023/09/12 10:28:48;;;;;;;8.80;8.00;;;28.60;99.90;;;;;;5051004;28;20214;-71
2023/09/12 10:31:17;;;;;;;9.32;8.05;;;28.50;99.90;;;;;;5056475;28;20226;-71
2023/09/12 10:33:45;;;;;;;9.40;8.35;;;28.60;99.90;;;;;;5070517;28;20292;-71
2023/09/12 10:36:13;;;;;;;11.48;8.55;;;28.90;99.90;;;;;;5058607;28;20721;-70
2023/09/12 10:38:44;;;;;;;9.32;7.57;;;28.80;99.90;;;;;;5054538;28;20693;-71
2023/09/12 10:41:13;;;;;;;8.05;7.25;;;28.90;99.90;;;;;;5053203;28;20212;-71
2023/09/12 10:43:46;;;;;;;9.32;8.38;;;29.20;99.90;;;;;;5052739;28;20694;-71
2023/09/12 10:46:13;;;;;;;9.02;7.68;;;29.40;99.90;;;;;;5053101;28;20306;-71
2023/09/12 10:48:41;;;;;;;9.75;7.45;;;29.30;99.90;;;;;;5055103;28;20230;-70
2023/09/12 10:51:09;;;;;;;9.70;8.02;;;29.20;99.90;;;;;;5056107;28;20253;-71
2023/09/12 10:53:37;;;;;;;8.82;7.65;;;29.30;99.90;;;;;;5053197;28;20726;-71
2023/09/12 10:56:17;;;;;;;8.68;7.88;;;29.30;99.90;;;;;;5053281;28;20227;-70
2023/09/12 10:59:15;;;;;;;8.23;7.47;;;29.30;99.90;;;;;;5052995;28;20238;-70
2023/09/12 11:01:45;;;;;;;8.30;7.38;;;29.30;99.90;;;;;;4988957;28;20208;-71
2023/09/12 11:04:42;;;;;;;8.65;7.10;;;29.20;99.90;;;;;;5041605;28;20280;-71
2023/09/12 11:07:34;;;;;;;12.15;7.90;;;29.20;99.90;;;;;;5007437;28;20247;-71
2023/09/12 11:10:22;;;;;;;7.60;7.00;;;29.00;99.90;;;;;;5048634;28;20206;-72
2023/09/12 11:12:51;;;;;;;9.45;7.65;;;28.90;99.90;;;;;;5048568;28;20204;-72
2023/09/12 11:15:21;;;;;;;10.13;8.50;;;29.10;99.90;;;;;;5049082;28;20214;-71
2023/09/12 11:17:49;;;;;;;9.88;8.05;;;29.20;99.90;;;;;;5053926;28;20248;-72
2023/09/12 11:20:18;;;;;;;8.23;7.53;;;29.30;99.90;;;;;;5056067;28;20956;-71
2023/09/12 11:22:46;;;;;;;7.68;7.05;;;29.60;99.90;;;;;;5049447;28;20705;-72
2023/09/12 11:25:22;;;;;;;9.55;7.70;;;29.60;99.90;;;;;;5051059;28;20226;-71
2023/09/12 11:28:04;;;;;;;8.18;7.18;;;29.60;99.90;;;;;;5052484;28;20255;-72
2023/09/12 11:30:34;;;;;;;11.02;7.78;;;29.80;99.90;;;;;;5053922;28;20198;-72
2023/09/12 11:33:05;;;;;;;8.75;7.95;;;30.00;99.90;;;;;;5049644;28;20199;-71
2023/09/12 11:35:37;;;;;;;7.70;7.00;;;29.90;99.90;;;;;;5048081;28;20226;-71
2023/09/12 11:38:05;;;;;;;9.98;7.60;;;29.90;99.90;;;;;;5056782;28;20211;-72
2023/09/12 11:40:44;;;;;;;8.77;7.57;;;29.80;99.90;;;;;;5057105;28;20252;-71
2023/09/12 11:43:22;;;;;;;8.10;7.20;;;30.10;99.90;;;;;;5056587;28;20210;-71
2023/09/12 11:45:52;;;;;;;8.00;7.18;;;30.00;99.90;;;;;;5059037;28;20230;-71
2023/09/12 11:48:19;;;;;;;7.80;7.10;;;30.20;99.90;;;;;;5055660;28;20204;-71
2023/09/12 11:50:51;;;;;;;8.15;7.35;;;30.40;99.90;;;;;;5052024;28;20435;-72
2023/09/12 11:53:21;;;;;;;7.82;7.13;;;30.60;99.90;;;;;;5053560;28;20226;-72
2023/09/12 11:55:51;;;;;;;8.07;7.38;;;30.70;99.90;;;;;;5051926;28;20225;-73
2023/09/12 11:58:19;;;;;;;8.50;7.60;;;30.50;99.90;;;;;;5050884;28;20210;-73
2023/09/12 12:00:47;;;;;;;9.38;7.30;;;30.30;99.90;;;;;;5055033;28;20206;-73
2023/09/12 12:03:16;;;;;;;8.65;7.10;;;30.20;99.90;;;;;;5055442;28;20202;-73
2023/09/12 12:05:44;;;;;;;7.85;7.05;;;30.10;99.90;;;;;;5056918;28;20812;-73
2023/09/12 12:08:12;;;;;;;7.85;7.03;;;30.00;99.90;;;;;;5054415;28;20219;-73
2023/09/12 12:10:39;;;;;;;10.55;8.45;;;29.90;99.90;;;;;;5053296;28;20789;-73
2023/09/12 12:13:08;;;;;;;9.32;8.32;;;29.70;99.90;;;;;;5054782;28;20206;-73
2023/09/12 12:15:35;;;;;;;9.90;8.23;;;29.80;99.90;;;;;;5051010;28;20268;-72
2023/09/12 12:18:02;;;;;;;9.68;7.85;;;29.70;99.90;;;;;;5054131;28;20283;-73
2023/09/12 12:20:30;;;;;;;8.93;7.70;;;29.60;99.90;;;;;;5053608;28;20281;-73
2023/09/12 12:22:57;;;;;;;8.80;7.78;;;29.70;99.90;;;;;;5051303;28;20290;-73
2023/09/12 12:25:24;;;;;;;7.82;7.13;;;29.60;99.90;;;;;;5055308;28;20222;-73
2023/09/12 12:27:51;;;;;;;8.50;7.60;;;29.70;99.90;;;;;;5054730;28;20338;-73
2023/09/12 12:30:20;;;;;;;8.98;8.10;;;30.00;99.90;;;;;;5052890;28;20786;-73
2023/09/12 12:32:49;;;;;;;9.30;8.50;;;30.00;99.90;;;;;;5052622;28;20281;-73
2023/09/12 12:35:20;;;;;;;10.60;8.82;;;30.00;99.90;;;;;;5054064;28;20218;-73
2023/09/12 12:37:50;;;;;;;9.80;8.77;;;29.50;99.90;;;;;;5052995;28;20331;-73
2023/09/12 12:40:17;;;;;;;9.02;7.97;;;29.20;99.90;;;;;;5054422;28;20237;-73
2023/09/12 12:42:46;;;;;;;9.48;8.30;;;29.30;99.90;;;;;;5055398;28;20206;-73
2023/09/12 12:45:14;;;;;;;8.70;7.90;;;29.20;99.90;;;;;;5050995;28;20249;-73
2023/09/12 12:47:41;;;;;;;9.38;8.57;;;29.20;99.90;;;;;;5056137;28;20221;-73
2023/09/12 12:50:13;;;;;;;8.65;7.78;;;29.20;99.90;;;;;;5054225;28;20257;-73
2023/09/12 12:52:40;;;;;;;8.15;7.35;;;29.40;99.90;;;;;;5053786;28;20194;-73